Dream Jasmine — 3ETG6 — position and weather

sailwx.info

Track history (hours):
 
Tides and Currents Weather Stations Pressure Air Temp Water Temp Dewpoint Dewpoint Depression Visibility Wind Speed Wind Dir Waves Ship Positions

Dream Jasmine

Last reported at 2018-Feb-19 20:50 UTC. Time now 2018-Feb-21 19:36 UTC.
Position N 41°20' E 141°45'.

Length 186 m; draft 6.5 m.

Type: Cargo ship. MMSI: 370552000.

Date/timePositionNaut miles runAvg speedWind from/ knotsBaromVisibWave heightAir tempDewpointWater temp
2018-Feb-19 20:50N 41°20' E 141°45'617.4
2018-Feb-19 20:29N 41°26' E 141°43'916.3
2018-Feb-19 19:58N 41°32' E 141°36'817.7
2018-Feb-19 19:30N 41°36' E 141°26'917.0
2018-Feb-19 18:59N 41°37' E 141°14'917.9
2018-Feb-19 18:30N 41°37' E 141°03'1019.2
2018-Feb-19 18:00N 41°36' E 140°50'918.7
2018-Feb-19 17:30N 41°31' E 140°40'918.3
2018-Feb-19 17:00N 41°26' E 140°29'1018.8
2018-Feb-19 16:30N 41°21' E 140°19'2516.9
2018-Feb-19 15:00N 41°13' E 139°47'917.2
2018-Feb-19 14:30N 41°14' E 139°35'1116.9
2018-Feb-19 13:52N 41°15' E 139°21'616.8
2018-Feb-19 13:30N 41°16' E 139°13'916.4
2018-Feb-19 12:59N 41°16' E 139°01'816.1
2018-Feb-19 12:30N 41°16' E 138°51'  
2018-Feb-16 04:08N 34°48' E 130°51'517.7
2018-Feb-16 03:52N 34°43' E 130°52'818.5
2018-Feb-16 03:26N 34°36' E 130°50'818.6
2018-Feb-16 03:00N 34°29' E 130°45'918.0
2018-Feb-16 02:30N 34°20' E 130°43'918.2
2018-Feb-16 02:01N 34°11' E 130°43'816.7
2018-Feb-16 01:30N 34°03' E 130°48'612.6
2018-Feb-16 01:00N 33°58' E 130°53'4 8.7
2018-Feb-16 00:30N 33°55' E 130°56'612.4
2018-Feb-16 00:00N 33°58' E 131°02'5 9.7
2018-Feb-15 23:30N 33°55' E 131°07'612.8
2018-Feb-15 23:00N 33°52' E 131°13'918.7
2018-Feb-15 22:30N 33°50' E 131°24'918.9
2018-Feb-15 22:00N 33°48' E 131°35'917.5
2018-Feb-15 21:30N 33°43' E 131°44'1019.1
2018-Feb-15 21:00N 33°35' E 131°50'918.9
2018-Feb-15 20:30N 33°27' E 131°55'1019.3
2018-Feb-15 20:00N 33°18' E 132°01'918.3
2018-Feb-15 19:30N 33°11' E 132°07'918.0
2018-Feb-15 19:00N 33°03' E 132°13'5713.9
2018-Feb-15 14:53N 32°41' E 133°16'717.9
2018-Feb-15 14:28N 32°44' E 133°24'8217.3
2018-Feb-15 09:44N 33°35' E 134°41'417.8
2018-Feb-15 09:30N 33°38' E 134°44'917.8
2018-Feb-15 08:58N 33°46' E 134°51'817.8
2018-Feb-15 08:30N 33°53' E 134°56'918.2
2018-Feb-15 08:00N 34°02' E 134°57'816.4
2018-Feb-15 07:31N 34°10' E 134°57'612.7
2018-Feb-15 07:01N 34°17' E 134°58'816.8
2018-Feb-15 06:30N 34°24' E 135°03'917.9
2018-Feb-15 06:00N 34°30' E 135°11'815.5
2018-Feb-15 05:31N 34°37' E 135°16'5 8.6
2018-Feb-15 04:58N 34°41' E 135°15'0 0.2
2018-Feb-15 04:28N 34°42' E 135°15'0 0.0
2018-Feb-15 03:58N 34°42' E 135°15'0 0.0
2018-Feb-15 03:28N 34°42' E 135°15'0 0.0
2018-Feb-15 02:58N 34°42' E 135°15'0 0.0
2018-Feb-15 02:28N 34°42' E 135°15'0 0.0
2018-Feb-15 01:58N 34°42' E 135°15'0 0.0
2018-Feb-15 01:28N 34°42' E 135°15'0 0.0
2018-Feb-15 00:58N 34°42' E 135°15'0 0.0
2018-Feb-15 00:25N 34°42' E 135°15'0 0.0
2018-Feb-14 23:58N 34°42' E 135°15'0 0.0
2018-Feb-14 23:28N 34°42' E 135°15'0 0.0
2018-Feb-14 22:58N 34°42' E 135°15'0 0.0
2018-Feb-14 22:29N 34°42' E 135°15'1 2.9
2018-Feb-14 22:00N 34°40' E 135°15'4 7.7
2018-Feb-14 21:30N 34°36' E 135°16'4 8.3
2018-Feb-14 21:01N 34°33' E 135°14'816.6
2018-Feb-14 20:31N 34°26' E 135°08'918.1
2018-Feb-14 20:01N 34°19' E 135°01'713.6
2018-Feb-14 19:30N 34°13' E 134°60'5 9.6
2018-Feb-14 19:00N 34°08' E 134°59'4 8.7
2018-Feb-14 18:30N 34°03' E 134°60'3 5.7
2018-Feb-14 18:01N 34°01' E 134°59'2 4.8
2018-Feb-14 17:30N 33°58' E 134°59'714.6
2018-Feb-14 17:00N 33°51' E 134°59'715.0
2018-Feb-14 16:30N 33°44' E 135°03'1014.9
2018-Feb-14 15:49N 33°35' E 135°09'614.2
2018-Feb-14 15:24N 33°30' E 135°12'613.7
2018-Feb-14 14:57N 33°27' E 135°18'614.3
2018-Feb-14 14:30N 33°24' E 135°25'6913.0
2018-Feb-14 09:11N 33°55' E 136°40'313.7
2018-Feb-14 08:59N 33°57' E 136°42'3912.1
2018-Feb-14 05:47N 34°32' E 137°02'310.1
2018-Feb-14 05:29N 34°35' E 136°59'712.6
2018-Feb-14 04:54N 34°39' E 136°52'717.1
2018-Feb-14 04:30N 34°44' E 136°47'817.0
2018-Feb-14 04:01N 34°53' E 136°46'713.7
2018-Feb-14 03:29N 34°59' E 136°49'5 9.5
2018-Feb-14 03:00N 35°03' E 136°53'0 0.4
2018-Feb-14 02:30N 35°03' E 136°53'0 0.0
2018-Feb-14 02:00N 35°03' E 136°53'0 0.0
2018-Feb-14 01:30N 35°03' E 136°53'0 0.0
2018-Feb-14 01:00N 35°03' E 136°53'0 0.0
2018-Feb-14 00:30N 35°03' E 136°53'0 0.0
2018-Feb-14 00:00N 35°03' E 136°53'0 0.0
2018-Feb-13 23:24N 35°03' E 136°53'0 0.0
2018-Feb-13 23:00N 35°03' E 136°53'0 0.1
2018-Feb-13 22:30N 35°03' E 136°53'2 3.3
2018-Feb-13 22:00N 35°02' E 136°51'510.1
2018-Feb-13 21:30N 34°58' E 136°48'612.5
2018-Feb-13 21:00N 34°52' E 136°47'816.4
2018-Feb-13 20:30N 34°44' E 136°50'816.6
2018-Feb-13 20:00N 34°37' E 136°56'1013.0
2018-Feb-13 19:15N 34°32' E 137°06'2 7.8
2018-Feb-13 18:58N 34°31' E 137°08'5 9.3
2018-Feb-13 18:27N 34°28' E 137°13'613.3
2018-Feb-13 17:58N 34°28' E 137°21'916.6
2018-Feb-13 17:24N 34°27' E 137°32'716.9
2018-Feb-13 16:58N 34°27' E 137°41'817.5
2018-Feb-13 16:30N 34°27' E 137°51'916.2
2018-Feb-13 15:57N 34°28' E 138°02'715.5
2018-Feb-13 15:30N 34°28' E 138°11'815.4
2018-Feb-13 15:00N 34°28' E 138°20'815.6
2018-Feb-13 14:30N 34°29' E 138°29'714.7
2018-Feb-13 14:00N 34°29' E 138°38'714.1
2018-Feb-13 13:30N 34°29' E 138°47'713.2
2018-Feb-13 13:00N 34°30' E 138°55'510.8
2018-Feb-13 12:30N 34°32' E 139°01'612.2
2018-Feb-13 11:59N 34°37' E 139°05'713.3
2018-Feb-13 11:30N 34°43' E 139°09'612.1
2018-Feb-13 10:59N 34°47' E 139°15'612.5
2018-Feb-13 10:30N 34°51' E 139°20'612.3
2018-Feb-13 09:59N 34°55' E 139°26'612.3
2018-Feb-13 09:30N 34°59' E 139°31'612.9
2018-Feb-13 09:00N 35°03' E 139°38'713.9
2018-Feb-13 08:31N 35°07' E 139°44'611.8
2018-Feb-13 08:01N 35°13' E 139°46'510.4
2018-Feb-13 07:30N 35°18' E 139°44'612.6
2018-Feb-13 07:00N 35°24' E 139°42'4 6.7
2018-Feb-13 06:28N 35°27' E 139°41'0 0.1
2018-Feb-13 05:58N 35°27' E 139°41'0 0.0
2018-Feb-13 05:28N 35°27' E 139°41'0 0.0
2018-Feb-13 04:58N 35°27' E 139°41'0 0.0
2018-Feb-13 04:28N 35°27' E 139°41'0 0.0
2018-Feb-13 03:58N 35°27' E 139°41'0 0.0
2018-Feb-13 03:28N 35°27' E 139°41'0 0.0
2018-Feb-13 02:58N 35°27' E 139°41'0 0.0
2018-Feb-13 02:28N 35°27' E 139°41'0 0.1
2018-Feb-13 01:58N 35°27' E 139°41'0 0.1
2018-Feb-13 01:28N 35°27' E 139°41'0 0.0
2018-Feb-13 00:58N 35°27' E 139°41'0 0.0
2018-Feb-13 00:28N 35°27' E 139°41'0 0.0
2018-Feb-12 23:55N 35°27' E 139°41'0 0.0
2018-Feb-12 23:28N 35°27' E 139°41'0 0.0
2018-Feb-12 22:58N 35°27' E 139°41'0 0.0
2018-Feb-12 22:28N 35°27' E 139°41'0 0.0
2018-Feb-12 22:00N 35°27' E 139°41'2 3.4
2018-Feb-12 21:30N 35°26' E 139°43'510.0
2018-Feb-12 21:00N 35°21' E 139°43'612.1
2018-Feb-12 20:31N 35°16' E 139°47'611.3
2018-Feb-12 20:00N 35°10' E 139°46'2 4.5
2018-Feb-12 19:31N 35°08' E 139°45'3 5.7
2018-Feb-12 19:00N 35°06' E 139°43'3 5.5
2018-Feb-12 18:30N 35°04' E 139°41'3 5.1
2018-Feb-12 18:00N 35°02' E 139°38'611.8
2018-Feb-12 17:31N 34°59' E 139°32'917.4
2018-Feb-12 17:00N 34°54' E 139°23'917.2
2018-Feb-12 16:29N 34°47' E 139°17'916.6
2018-Feb-12 15:58N 34°40' E 139°10'816.7
2018-Feb-12 15:30N 34°34' E 139°05'816.2
2018-Feb-12 15:00N 34°28' E 138°58'816.1
2018-Feb-12 14:29N 34°22' E 138°52'815.7
2018-Feb-12 13:59N 34°15' E 138°46'916.1
2018-Feb-12 13:27N 34°09' E 138°39'815.5
2018-Feb-12 12:58N 34°03' E 138°33'715.0
2018-Feb-12 12:30N 33°58' E 138°27'  
Track history (hours):
 
Tides and Currents Weather Stations Pressure Air Temp Water Temp Dewpoint Dewpoint Depression Visibility Wind Speed Wind Dir Waves Ship Positions

Dream Jasmine

Last reported at 2018-Feb-19 20:50 UTC. Time now 2018-Feb-21 19:36 UTC.
Position N 41°20' E 141°45'.

Length 186 m; draft 6.5 m.

Type: Cargo ship. MMSI: 370552000.

Date/timePositionNaut miles runAvg speedWind from/ knotsBaromVisibWave heightAir tempDewpointWater temp
2018-Feb-19 20:50N 41°20' E 141°45'617.4
2018-Feb-19 20:29N 41°26' E 141°43'916.3
2018-Feb-19 19:58N 41°32' E 141°36'817.7
2018-Feb-19 19:30N 41°36' E 141°26'917.0
2018-Feb-19 18:59N 41°37' E 141°14'917.9
2018-Feb-19 18:30N 41°37' E 141°03'1019.2
2018-Feb-19 18:00N 41°36' E 140°50'918.7
2018-Feb-19 17:30N 41°31' E 140°40'918.3
2018-Feb-19 17:00N 41°26' E 140°29'1018.8
2018-Feb-19 16:30N 41°21' E 140°19'2516.9
2018-Feb-19 15:00N 41°13' E 139°47'917.2
2018-Feb-19 14:30N 41°14' E 139°35'1116.9
2018-Feb-19 13:52N 41°15' E 139°21'616.8
2018-Feb-19 13:30N 41°16' E 139°13'916.4
2018-Feb-19 12:59N 41°16' E 139°01'816.1
2018-Feb-19 12:30N 41°16' E 138°51'  
2018-Feb-16 04:08N 34°48' E 130°51'517.7
2018-Feb-16 03:52N 34°43' E 130°52'818.5
2018-Feb-16 03:26N 34°36' E 130°50'818.6
2018-Feb-16 03:00N 34°29' E 130°45'918.0
2018-Feb-16 02:30N 34°20' E 130°43'918.2
2018-Feb-16 02:01N 34°11' E 130°43'816.7
2018-Feb-16 01:30N 34°03' E 130°48'612.6
2018-Feb-16 01:00N 33°58' E 130°53'4 8.7
2018-Feb-16 00:30N 33°55' E 130°56'612.4
2018-Feb-16 00:00N 33°58' E 131°02'5 9.7
2018-Feb-15 23:30N 33°55' E 131°07'612.8
2018-Feb-15 23:00N 33°52' E 131°13'918.7
2018-Feb-15 22:30N 33°50' E 131°24'918.9
2018-Feb-15 22:00N 33°48' E 131°35'917.5
2018-Feb-15 21:30N 33°43' E 131°44'1019.1
2018-Feb-15 21:00N 33°35' E 131°50'918.9
2018-Feb-15 20:30N 33°27' E 131°55'1019.3
2018-Feb-15 20:00N 33°18' E 132°01'918.3
2018-Feb-15 19:30N 33°11' E 132°07'918.0
2018-Feb-15 19:00N 33°03' E 132°13'5713.9
2018-Feb-15 14:53N 32°41' E 133°16'717.9
2018-Feb-15 14:28N 32°44' E 133°24'8217.3
2018-Feb-15 09:44N 33°35' E 134°41'417.8
2018-Feb-15 09:30N 33°38' E 134°44'917.8
2018-Feb-15 08:58N 33°46' E 134°51'817.8
2018-Feb-15 08:30N 33°53' E 134°56'918.2
2018-Feb-15 08:00N 34°02' E 134°57'816.4
2018-Feb-15 07:31N 34°10' E 134°57'612.7
2018-Feb-15 07:01N 34°17' E 134°58'816.8
2018-Feb-15 06:30N 34°24' E 135°03'917.9
2018-Feb-15 06:00N 34°30' E 135°11'815.5
2018-Feb-15 05:31N 34°37' E 135°16'5 8.6
2018-Feb-15 04:58N 34°41' E 135°15'0 0.2
2018-Feb-15 04:28N 34°42' E 135°15'0 0.0
2018-Feb-15 03:58N 34°42' E 135°15'0 0.0
2018-Feb-15 03:28N 34°42' E 135°15'0 0.0
2018-Feb-15 02:58N 34°42' E 135°15'0 0.0
2018-Feb-15 02:28N 34°42' E 135°15'0 0.0
2018-Feb-15 01:58N 34°42' E 135°15'0 0.0
2018-Feb-15 01:28N 34°42' E 135°15'0 0.0
2018-Feb-15 00:58N 34°42' E 135°15'0 0.0
2018-Feb-15 00:25N 34°42' E 135°15'0 0.0
2018-Feb-14 23:58N 34°42' E 135°15'0 0.0
2018-Feb-14 23:28N 34°42' E 135°15'0 0.0
2018-Feb-14 22:58N 34°42' E 135°15'0 0.0
2018-Feb-14 22:29N 34°42' E 135°15'1 2.9
2018-Feb-14 22:00N 34°40' E 135°15'4 7.7
2018-Feb-14 21:30N 34°36' E 135°16'4 8.3
2018-Feb-14 21:01N 34°33' E 135°14'816.6
2018-Feb-14 20:31N 34°26' E 135°08'918.1
2018-Feb-14 20:01N 34°19' E 135°01'713.6
2018-Feb-14 19:30N 34°13' E 134°60'5 9.6
2018-Feb-14 19:00N 34°08' E 134°59'4 8.7
2018-Feb-14 18:30N 34°03' E 134°60'3 5.7
2018-Feb-14 18:01N 34°01' E 134°59'2 4.8
2018-Feb-14 17:30N 33°58' E 134°59'714.6
2018-Feb-14 17:00N 33°51' E 134°59'715.0
2018-Feb-14 16:30N 33°44' E 135°03'1014.9
2018-Feb-14 15:49N 33°35' E 135°09'614.2
2018-Feb-14 15:24N 33°30' E 135°12'613.7
2018-Feb-14 14:57N 33°27' E 135°18'614.3
2018-Feb-14 14:30N 33°24' E 135°25'6913.0
2018-Feb-14 09:11N 33°55' E 136°40'313.7
2018-Feb-14 08:59N 33°57' E 136°42'3912.1
2018-Feb-14 05:47N 34°32' E 137°02'310.1
2018-Feb-14 05:29N 34°35' E 136°59'712.6
2018-Feb-14 04:54N 34°39' E 136°52'717.1
2018-Feb-14 04:30N 34°44' E 136°47'817.0
2018-Feb-14 04:01N 34°53' E 136°46'713.7
2018-Feb-14 03:29N 34°59' E 136°49'5 9.5
2018-Feb-14 03:00N 35°03' E 136°53'0 0.4
2018-Feb-14 02:30N 35°03' E 136°53'0 0.0
2018-Feb-14 02:00N 35°03' E 136°53'0 0.0
2018-Feb-14 01:30N 35°03' E 136°53'0 0.0
2018-Feb-14 01:00N 35°03' E 136°53'0 0.0
2018-Feb-14 00:30N 35°03' E 136°53'0 0.0
2018-Feb-14 00:00N 35°03' E 136°53'0 0.0
2018-Feb-13 23:24N 35°03' E 136°53'0 0.0
2018-Feb-13 23:00N 35°03' E 136°53'0 0.1
2018-Feb-13 22:30N 35°03' E 136°53'2 3.3
2018-Feb-13 22:00N 35°02' E 136°51'510.1
2018-Feb-13 21:30N 34°58' E 136°48'612.5
2018-Feb-13 21:00N 34°52' E 136°47'816.4
2018-Feb-13 20:30N 34°44' E 136°50'816.6
2018-Feb-13 20:00N 34°37' E 136°56'1013.0
2018-Feb-13 19:15N 34°32' E 137°06'2 7.8
2018-Feb-13 18:58N 34°31' E 137°08'5 9.3
2018-Feb-13 18:27N 34°28' E 137°13'613.3
2018-Feb-13 17:58N 34°28' E 137°21'916.6
2018-Feb-13 17:24N 34°27' E 137°32'716.9
2018-Feb-13 16:58N 34°27' E 137°41'817.5
2018-Feb-13 16:30N 34°27' E 137°51'916.2
2018-Feb-13 15:57N 34°28' E 138°02'715.5
2018-Feb-13 15:30N 34°28' E 138°11'815.4
2018-Feb-13 15:00N 34°28' E 138°20'815.6
2018-Feb-13 14:30N 34°29' E 138°29'714.7
2018-Feb-13 14:00N 34°29' E 138°38'714.1
2018-Feb-13 13:30N 34°29' E 138°47'713.2
2018-Feb-13 13:00N 34°30' E 138°55'510.8
2018-Feb-13 12:30N 34°32' E 139°01'612.2
2018-Feb-13 11:59N 34°37' E 139°05'713.3
2018-Feb-13 11:30N 34°43' E 139°09'612.1
2018-Feb-13 10:59N 34°47' E 139°15'612.5
2018-Feb-13 10:30N 34°51' E 139°20'612.3
2018-Feb-13 09:59N 34°55' E 139°26'612.3
2018-Feb-13 09:30N 34°59' E 139°31'612.9
2018-Feb-13 09:00N 35°03' E 139°38'713.9
2018-Feb-13 08:31N 35°07' E 139°44'611.8
2018-Feb-13 08:01N 35°13' E 139°46'510.4
2018-Feb-13 07:30N 35°18' E 139°44'612.6
2018-Feb-13 07:00N 35°24' E 139°42'4 6.7
2018-Feb-13 06:28N 35°27' E 139°41'0 0.1
2018-Feb-13 05:58N 35°27' E 139°41'0 0.0
2018-Feb-13 05:28N 35°27' E 139°41'0 0.0
2018-Feb-13 04:58N 35°27' E 139°41'0 0.0
2018-Feb-13 04:28N 35°27' E 139°41'0 0.0
2018-Feb-13 03:58N 35°27' E 139°41'0 0.0
2018-Feb-13 03:28N 35°27' E 139°41'0 0.0
2018-Feb-13 02:58N 35°27' E 139°41'0 0.0
2018-Feb-13 02:28N 35°27' E 139°41'0 0.1
2018-Feb-13 01:58N 35°27' E 139°41'0 0.1
2018-Feb-13 01:28N 35°27' E 139°41'0 0.0
2018-Feb-13 00:58N 35°27' E 139°41'0 0.0
2018-Feb-13 00:28N 35°27' E 139°41'0 0.0
2018-Feb-12 23:55N 35°27' E 139°41'0 0.0
2018-Feb-12 23:28N 35°27' E 139°41'0 0.0
2018-Feb-12 22:58N 35°27' E 139°41'0 0.0
2018-Feb-12 22:28N 35°27' E 139°41'0 0.0
2018-Feb-12 22:00N 35°27' E 139°41'2 3.4
2018-Feb-12 21:30N 35°26' E 139°43'510.0
2018-Feb-12 21:00N 35°21' E 139°43'612.1
2018-Feb-12 20:31N 35°16' E 139°47'611.3
2018-Feb-12 20:00N 35°10' E 139°46'2 4.5
2018-Feb-12 19:31N 35°08' E 139°45'3 5.7
2018-Feb-12 19:00N 35°06' E 139°43'3 5.5
2018-Feb-12 18:30N 35°04' E 139°41'3 5.1
2018-Feb-12 18:00N 35°02' E 139°38'611.8
2018-Feb-12 17:31N 34°59' E 139°32'917.4
2018-Feb-12 17:00N 34°54' E 139°23'917.2
2018-Feb-12 16:29N 34°47' E 139°17'916.6
2018-Feb-12 15:58N 34°40' E 139°10'816.7
2018-Feb-12 15:30N 34°34' E 139°05'816.2
2018-Feb-12 15:00N 34°28' E 138°58'816.1
2018-Feb-12 14:29N 34°22' E 138°52'815.7
2018-Feb-12 13:59N 34°15' E 138°46'916.1
2018-Feb-12 13:27N 34°09' E 138°39'815.5
2018-Feb-12 12:58N 34°03' E 138°33'715.0
2018-Feb-12 12:30N 33°58' E 138°27'  

Dump ship's entire track history